TWG53 EDWI-EDXW
Flight info
| Callsign | TWG53 |
|---|---|
| Flight time | 0h 40m |
| Altitude | 99900 |
| Route | DCT |
| Aircraft | C208/L-DFGRVY/S |
Departure
| Time | 2026-05-05 10:36 |
|---|---|
| Airport | JadeWeser Airport (EDWI) |
Arrival
| Time | 2026-05-05 11:16 |
|---|---|
| Airport | Westerland Sylt Airport (EDXW) |
| Time | Latitude | Longitude | Altitude | Speed | Heading |
|---|---|---|---|---|---|
| 2026-05-05 10:30 | 53.50695 | 8.05263 | 35 ft | 0 kts | 31° |
| 2026-05-05 10:32 | 53.50701 | 8.05301 | 34 ft | 8 kts | 126° |
| 2026-05-05 10:32 | 53.50660 | 8.05365 | 36 ft | 10 kts | 208° |
| 2026-05-05 10:32 | 53.50649 | 8.05206 | 36 ft | 19 kts | 271° |
| 2026-05-05 10:33 | 53.50593 | 8.05055 | 36 ft | 18 kts | 197° |
| 2026-05-05 10:33 | 53.50456 | 8.05016 | 36 ft | 19 kts | 189° |
| 2026-05-05 10:33 | 53.50323 | 8.04995 | 36 ft | 22 kts | 185° |
| 2026-05-05 10:33 | 53.50196 | 8.04973 | 36 ft | 19 kts | 184° |
| 2026-05-05 10:34 | 53.50049 | 8.04949 | 36 ft | 22 kts | 186° |
| 2026-05-05 10:34 | 53.49909 | 8.04889 | 37 ft | 21 kts | 202° |
| 2026-05-05 10:34 | 53.49806 | 8.04825 | 37 ft | 10 kts | 180° |
| 2026-05-05 10:34 | 53.49777 | 8.04920 | 40 ft | 9 kts | 58° |
| 2026-05-05 10:35 | 53.49864 | 8.04989 | 39 ft | 27 kts | 22° |
| 2026-05-05 10:35 | 53.50175 | 8.05200 | 37 ft | 66 kts | 21° |
| 2026-05-05 10:35 | 53.50629 | 8.05480 | 168 ft | 68 kts | 24° |
| 2026-05-05 10:35 | 53.51071 | 8.05773 | 343 ft | 69 kts | 23° |
| 2026-05-05 10:36 | 53.51562 | 8.06082 | 562 ft | 78 kts | 21° |
| 2026-05-05 10:36 | 53.51929 | 8.06784 | 701 ft | 93 kts | 82° |
| 2026-05-05 10:36 | 53.51647 | 8.07856 | 821 ft | 109 kts | 118° |
| 2026-05-05 10:36 | 53.51166 | 8.09028 | 881 ft | 130 kts | 121° |
| 2026-05-05 10:37 | 53.50597 | 8.10260 | 1003 ft | 136 kts | 121° |
| 2026-05-05 10:37 | 53.50193 | 8.11642 | 1181 ft | 127 kts | 94° |
| 2026-05-05 10:37 | 53.50064 | 8.13080 | 1390 ft | 122 kts | 87° |
| 2026-05-05 10:37 | 53.50324 | 8.14345 | 1534 ft | 118 kts | 44° |
| 2026-05-05 10:38 | 53.51013 | 8.15173 | 1522 ft | 128 kts | 33° |
| 2026-05-05 10:38 | 53.51763 | 8.16060 | 1522 ft | 134 kts | 34° |
| 2026-05-05 10:38 | 53.52544 | 8.16955 | 1529 ft | 137 kts | 33° |
| 2026-05-05 10:38 | 53.53335 | 8.17857 | 1528 ft | 138 kts | 34° |
| 2026-05-05 10:39 | 53.53879 | 8.18462 | 1524 ft | 140 kts | 33° |
| 2026-05-05 10:39 | 53.54694 | 8.19376 | 1517 ft | 141 kts | 33° |
| 2026-05-05 10:39 | 53.55509 | 8.20278 | 1520 ft | 140 kts | 30° |
| 2026-05-05 10:39 | 53.56434 | 8.20700 | 1526 ft | 141 kts | 15° |
| 2026-05-05 10:40 | 53.57380 | 8.21142 | 1526 ft | 141 kts | 18° |
| 2026-05-05 10:40 | 53.58321 | 8.21629 | 1526 ft | 141 kts | 19° |
| 2026-05-05 10:40 | 53.59259 | 8.22121 | 1520 ft | 141 kts | 19° |
| 2026-05-05 10:40 | 53.60197 | 8.22611 | 1524 ft | 141 kts | 19° |
| 2026-05-05 10:41 | 53.61133 | 8.23096 | 1522 ft | 141 kts | 18° |
| 2026-05-05 10:41 | 53.62069 | 8.23581 | 1523 ft | 140 kts | 19° |
| 2026-05-05 10:41 | 53.62994 | 8.24063 | 1519 ft | 138 kts | 19° |
| 2026-05-05 10:41 | 53.63914 | 8.24541 | 1520 ft | 139 kts | 19° |
| 2026-05-05 10:42 | 53.65523 | 8.26358 | 1511 ft | 140 kts | 34° |
| 2026-05-05 10:42 | 53.66329 | 8.27245 | 1514 ft | 138 kts | 33° |
| 2026-05-05 10:42 | 53.67131 | 8.28126 | 1513 ft | 138 kts | 33° |
| 2026-05-05 10:43 | 53.67931 | 8.29034 | 1525 ft | 139 kts | 34° |
| 2026-05-05 10:43 | 53.68734 | 8.29936 | 1524 ft | 138 kts | 33° |
| 2026-05-05 10:43 | 53.69538 | 8.30835 | 1522 ft | 139 kts | 33° |
| 2026-05-05 10:43 | 53.70342 | 8.31743 | 1518 ft | 139 kts | 33° |
| 2026-05-05 10:44 | 53.71145 | 8.32661 | 1521 ft | 139 kts | 33° |
| 2026-05-05 10:44 | 53.71935 | 8.33569 | 1519 ft | 139 kts | 33° |
| 2026-05-05 10:44 | 53.72735 | 8.34491 | 1525 ft | 139 kts | 34° |
| 2026-05-05 10:44 | 53.73563 | 8.35430 | 1520 ft | 143 kts | 34° |
| 2026-05-05 10:45 | 53.74382 | 8.36369 | 1520 ft | 145 kts | 33° |
| 2026-05-05 10:45 | 53.75216 | 8.37352 | 1519 ft | 147 kts | 34° |
| 2026-05-05 10:45 | 53.76072 | 8.38337 | 1524 ft | 150 kts | 33° |
| 2026-05-05 10:45 | 53.76939 | 8.39336 | 1525 ft | 151 kts | 34° |
| 2026-05-05 10:46 | 53.77801 | 8.40340 | 1523 ft | 151 kts | 34° |
| 2026-05-05 10:46 | 53.78667 | 8.41352 | 1517 ft | 152 kts | 34° |
| 2026-05-05 10:46 | 53.79540 | 8.42371 | 1512 ft | 152 kts | 34° |
| 2026-05-05 10:46 | 53.80415 | 8.43372 | 1523 ft | 152 kts | 34° |
| 2026-05-05 10:47 | 53.81286 | 8.44379 | 1505 ft | 152 kts | 33° |
| 2026-05-05 10:47 | 53.82159 | 8.45374 | 1505 ft | 151 kts | 34° |
| 2026-05-05 10:47 | 53.83033 | 8.46363 | 1514 ft | 151 kts | 33° |
| 2026-05-05 10:47 | 53.83906 | 8.47365 | 1508 ft | 152 kts | 34° |
| 2026-05-05 10:48 | 53.84784 | 8.48359 | 1507 ft | 152 kts | 34° |
| 2026-05-05 10:48 | 53.85652 | 8.49351 | 1512 ft | 150 kts | 34° |
| 2026-05-05 10:48 | 53.86521 | 8.50354 | 1514 ft | 152 kts | 34° |
| 2026-05-05 10:48 | 53.87402 | 8.51359 | 1512 ft | 153 kts | 33° |
| 2026-05-05 10:49 | 53.88290 | 8.52374 | 1512 ft | 154 kts | 34° |
| 2026-05-05 10:49 | 53.89163 | 8.53367 | 1503 ft | 152 kts | 33° |
| 2026-05-05 10:49 | 53.90046 | 8.54383 | 1507 ft | 150 kts | 32° |
| 2026-05-05 10:49 | 53.91019 | 8.54959 | 1504 ft | 151 kts | 13° |
| 2026-05-05 10:50 | 53.92084 | 8.55110 | 1502 ft | 152 kts | 5° |
| 2026-05-05 10:50 | 53.93134 | 8.55210 | 1502 ft | 153 kts | 5° |
| 2026-05-05 10:50 | 53.94202 | 8.55306 | 1500 ft | 153 kts | 5° |
| 2026-05-05 10:50 | 53.95262 | 8.55401 | 1508 ft | 152 kts | 5° |
| 2026-05-05 10:51 | 53.96320 | 8.55498 | 1502 ft | 153 kts | 5° |
| 2026-05-05 10:51 | 53.97379 | 8.55605 | 1505 ft | 153 kts | 5° |
| 2026-05-05 10:51 | 53.98436 | 8.55711 | 1497 ft | 151 kts | 5° |
| 2026-05-05 10:51 | 53.99480 | 8.55797 | 1504 ft | 150 kts | 4° |
| 2026-05-05 10:52 | 54.00526 | 8.55898 | 1503 ft | 151 kts | 5° |
| 2026-05-05 10:52 | 54.01574 | 8.55981 | 1504 ft | 151 kts | 4° |
| 2026-05-05 10:52 | 54.02617 | 8.56073 | 1504 ft | 149 kts | 5° |
| 2026-05-05 10:52 | 54.03655 | 8.56164 | 1506 ft | 150 kts | 5° |
| 2026-05-05 10:53 | 54.04703 | 8.56250 | 1507 ft | 151 kts | 5° |
| 2026-05-05 10:53 | 54.05753 | 8.56340 | 1506 ft | 151 kts | 5° |
| 2026-05-05 10:53 | 54.06789 | 8.56420 | 1510 ft | 151 kts | 5° |
| 2026-05-05 10:53 | 54.07839 | 8.56501 | 1511 ft | 152 kts | 5° |
| 2026-05-05 10:54 | 54.08891 | 8.56589 | 1513 ft | 151 kts | 5° |
| 2026-05-05 10:54 | 54.09943 | 8.56687 | 1512 ft | 152 kts | 5° |
| 2026-05-05 10:54 | 54.10998 | 8.56778 | 1516 ft | 152 kts | 5° |
| 2026-05-05 10:54 | 54.12050 | 8.56859 | 1515 ft | 150 kts | 5° |
| 2026-05-05 10:55 | 54.13088 | 8.56939 | 1511 ft | 149 kts | 5° |
| 2026-05-05 10:55 | 54.14126 | 8.57022 | 1511 ft | 149 kts | 5° |
| 2026-05-05 10:55 | 54.15171 | 8.57103 | 1514 ft | 150 kts | 5° |
| 2026-05-05 10:55 | 54.16223 | 8.57194 | 1517 ft | 152 kts | 5° |
| 2026-05-05 10:56 | 54.17270 | 8.57267 | 1523 ft | 154 kts | 5° |
| 2026-05-05 10:56 | 54.18349 | 8.57340 | 1530 ft | 156 kts | 5° |
| 2026-05-05 10:56 | 54.19440 | 8.57437 | 1523 ft | 158 kts | 5° |
| 2026-05-05 10:56 | 54.20535 | 8.57338 | 1517 ft | 159 kts | 349° |
| 2026-05-05 10:57 | 54.21602 | 8.56873 | 1517 ft | 157 kts | 348° |
| 2026-05-05 10:57 | 54.22655 | 8.56401 | 1519 ft | 156 kts | 348° |
| 2026-05-05 10:57 | 54.23707 | 8.55938 | 1512 ft | 156 kts | 348° |
| 2026-05-05 10:57 | 54.24752 | 8.55462 | 1514 ft | 156 kts | 348° |
| 2026-05-05 10:58 | 54.25793 | 8.54974 | 1508 ft | 155 kts | 348° |
| 2026-05-05 10:58 | 54.26831 | 8.54489 | 1514 ft | 155 kts | 347° |
| 2026-05-05 10:58 | 54.27874 | 8.54018 | 1513 ft | 155 kts | 348° |
| 2026-05-05 10:58 | 54.28923 | 8.53556 | 1508 ft | 155 kts | 348° |
| 2026-05-05 10:59 | 54.29962 | 8.53085 | 1515 ft | 154 kts | 348° |
| 2026-05-05 10:59 | 54.30998 | 8.52628 | 1516 ft | 153 kts | 347° |
| 2026-05-05 10:59 | 54.32036 | 8.52189 | 1522 ft | 154 kts | 348° |
| 2026-05-05 10:59 | 54.33079 | 8.51750 | 1520 ft | 155 kts | 348° |
| 2026-05-05 11:00 | 54.34128 | 8.51303 | 1518 ft | 155 kts | 348° |
| 2026-05-05 11:00 | 54.35167 | 8.50839 | 1518 ft | 155 kts | 348° |
| 2026-05-05 11:00 | 54.36209 | 8.50378 | 1517 ft | 154 kts | 348° |
| 2026-05-05 11:00 | 54.37250 | 8.49922 | 1521 ft | 155 kts | 347° |
| 2026-05-05 11:01 | 54.38297 | 8.49453 | 1519 ft | 156 kts | 343° |
| 2026-05-05 11:01 | 54.39238 | 8.48559 | 1523 ft | 157 kts | 329° |
| 2026-05-05 11:01 | 54.40153 | 8.47534 | 1523 ft | 157 kts | 330° |
| 2026-05-05 11:01 | 54.41070 | 8.46519 | 1522 ft | 157 kts | 330° |
| 2026-05-05 11:02 | 54.41990 | 8.45509 | 1520 ft | 157 kts | 330° |
| 2026-05-05 11:02 | 54.42903 | 8.44498 | 1519 ft | 156 kts | 330° |
| 2026-05-05 11:02 | 54.43809 | 8.43470 | 1519 ft | 156 kts | 330° |
| 2026-05-05 11:02 | 54.44715 | 8.42446 | 1519 ft | 156 kts | 329° |
| 2026-05-05 11:03 | 54.45631 | 8.41434 | 1520 ft | 157 kts | 330° |
| 2026-05-05 11:03 | 54.46546 | 8.40418 | 1519 ft | 156 kts | 330° |
| 2026-05-05 11:03 | 54.47456 | 8.39406 | 1519 ft | 155 kts | 330° |
| 2026-05-05 11:03 | 54.48366 | 8.38397 | 1512 ft | 156 kts | 330° |
| 2026-05-05 11:04 | 54.49278 | 8.37388 | 1521 ft | 156 kts | 330° |
| 2026-05-05 11:04 | 54.50195 | 8.36388 | 1527 ft | 156 kts | 334° |
| 2026-05-05 11:04 | 54.51189 | 8.35662 | 1520 ft | 155 kts | 341° |
| 2026-05-05 11:04 | 54.52198 | 8.34987 | 1528 ft | 156 kts | 340° |
| 2026-05-05 11:05 | 54.53211 | 8.34320 | 1526 ft | 155 kts | 341° |
| 2026-05-05 11:05 | 54.54199 | 8.33658 | 1525 ft | 154 kts | 341° |
| 2026-05-05 11:05 | 54.55201 | 8.32982 | 1533 ft | 155 kts | 341° |
| 2026-05-05 11:05 | 54.56199 | 8.32305 | 1525 ft | 155 kts | 341° |
| 2026-05-05 11:06 | 54.57203 | 8.31626 | 1527 ft | 155 kts | 341° |
| 2026-05-05 11:06 | 54.58206 | 8.30960 | 1525 ft | 154 kts | 341° |
| 2026-05-05 11:06 | 54.59207 | 8.30288 | 1528 ft | 154 kts | 340° |
| 2026-05-05 11:06 | 54.60213 | 8.29621 | 1531 ft | 155 kts | 341° |
| 2026-05-05 11:07 | 54.61221 | 8.28952 | 1531 ft | 155 kts | 343° |
| 2026-05-05 11:07 | 54.62256 | 8.28480 | 1527 ft | 153 kts | 348° |
| 2026-05-05 11:07 | 54.63292 | 8.28069 | 1531 ft | 153 kts | 349° |
| 2026-05-05 11:07 | 54.64335 | 8.27662 | 1522 ft | 153 kts | 349° |
| 2026-05-05 11:08 | 54.65368 | 8.27239 | 1522 ft | 152 kts | 348° |
| 2026-05-05 11:08 | 54.66402 | 8.26830 | 1529 ft | 153 kts | 349° |
| 2026-05-05 11:08 | 54.67445 | 8.26422 | 1531 ft | 153 kts | 349° |
| 2026-05-05 11:08 | 54.68487 | 8.26012 | 1532 ft | 154 kts | 349° |
| 2026-05-05 11:09 | 54.69531 | 8.25601 | 1534 ft | 154 kts | 349° |
| 2026-05-05 11:09 | 54.70573 | 8.25179 | 1533 ft | 154 kts | 349° |
| 2026-05-05 11:09 | 54.71624 | 8.24751 | 1533 ft | 156 kts | 349° |
| 2026-05-05 11:09 | 54.72686 | 8.24429 | 1532 ft | 155 kts | 357° |
| 2026-05-05 11:10 | 54.73760 | 8.24355 | 1529 ft | 154 kts | 359° |
| 2026-05-05 11:10 | 54.74835 | 8.24278 | 1535 ft | 155 kts | 359° |
| 2026-05-05 11:10 | 54.75912 | 8.24289 | 1535 ft | 154 kts | 2° |
| 2026-05-05 11:10 | 54.76968 | 8.24350 | 1533 ft | 154 kts | 3° |
| 2026-05-05 11:11 | 54.78036 | 8.24415 | 1533 ft | 154 kts | 2° |
| 2026-05-05 11:11 | 54.79110 | 8.24484 | 1533 ft | 155 kts | 3° |
| 2026-05-05 11:11 | 54.80181 | 8.24556 | 1526 ft | 154 kts | 2° |
| 2026-05-05 11:11 | 54.81254 | 8.24623 | 1531 ft | 155 kts | 3° |
| 2026-05-05 11:12 | 54.82325 | 8.24693 | 1532 ft | 153 kts | 3° |
| 2026-05-05 11:12 | 54.83391 | 8.24759 | 1531 ft | 153 kts | 3° |
| 2026-05-05 11:12 | 54.84456 | 8.24827 | 1515 ft | 153 kts | 3° |
| 2026-05-05 11:12 | 54.85519 | 8.24895 | 1516 ft | 153 kts | 2° |
| 2026-05-05 11:13 | 54.86584 | 8.24973 | 1518 ft | 153 kts | 3° |
| 2026-05-05 11:13 | 54.87646 | 8.25117 | 1518 ft | 153 kts | 10° |
| 2026-05-05 11:13 | 54.88666 | 8.25590 | 1512 ft | 145 kts | 19° |
| 2026-05-05 11:13 | 54.89553 | 8.26104 | 1498 ft | 127 kts | 18° |
| 2026-05-05 11:14 | 54.90374 | 8.26573 | 1376 ft | 122 kts | 19° |
| 2026-05-05 11:14 | 54.91166 | 8.27044 | 1118 ft | 120 kts | 19° |
| 2026-05-05 11:14 | 54.91926 | 8.27492 | 867 ft | 112 kts | 18° |
| 2026-05-05 11:14 | 54.92589 | 8.28064 | 739 ft | 97 kts | 26° |
| 2026-05-05 11:15 | 54.92975 | 8.28872 | 701 ft | 89 kts | 68° |
| 2026-05-05 11:15 | 54.93032 | 8.29997 | 596 ft | 98 kts | 88° |
| 2026-05-05 11:15 | 54.92881 | 8.31164 | 493 ft | 100 kts | 106° |
| 2026-05-05 11:15 | 54.92588 | 8.32287 | 300 ft | 104 kts | 120° |
| 2026-05-05 11:16 | 54.92078 | 8.33133 | 131 ft | 102 kts | 148° |
| 2026-05-05 11:16 | 54.91522 | 8.33800 | 34 ft | 89 kts | 144° |
| 2026-05-05 11:16 | 54.91179 | 8.34225 | 35 ft | 50 kts | 144° |
| 2026-05-05 11:16 | 54.90892 | 8.34590 | 35 ft | 48 kts | 142° |
| 2026-05-05 11:17 | 54.90649 | 8.34883 | 34 ft | 33 kts | 145° |
| 2026-05-05 11:17 | 54.90548 | 8.34854 | 34 ft | 19 kts | 224° |
| 2026-05-05 11:17 | 54.90425 | 8.34663 | 34 ft | 28 kts | 222° |
| 2026-05-05 11:17 | 54.90278 | 8.34382 | 33 ft | 33 kts | 243° |
| 2026-05-05 11:18 | 54.90240 | 8.33998 | 32 ft | 33 kts | 277° |
| 2026-05-05 11:18 | 54.90288 | 8.33592 | 31 ft | 31 kts | 296° |
| 2026-05-05 11:18 | 54.90425 | 8.33332 | 33 ft | 31 kts | 328° |
| 2026-05-05 11:18 | 54.90623 | 8.33239 | 34 ft | 27 kts | 354° |
| 2026-05-05 11:19 | 54.90819 | 8.33206 | 34 ft | 29 kts | 349° |
| 2026-05-05 11:19 | 54.90962 | 8.33091 | 33 ft | 21 kts | 322° |
| 2026-05-05 11:19 | 54.91067 | 8.32893 | 29 ft | 22 kts | 310° |
| 2026-05-05 11:19 | 54.91140 | 8.32750 | 26 ft | 8 kts | 311° |
| 2026-05-05 11:20 | 54.91183 | 8.32643 | 26 ft | 13 kts | 276° |
| 2026-05-05 11:20 | 54.91124 | 8.32638 | 26 ft | 2 kts | 163° |